Thursday, November 23, 2017, 4:35 AM EST
Back to Local

KMPV, Knapp State Airport

Location: Barre, VT, United States Lat: 44.2
Local Time: 4:35 AM EST ( 9:35 GMT) Lon: -72.567
Time Zone: US/Eastern Elev: 1164 ft

Show me the last for .
Show Decoded

2017-11-23 03:51 METAR KMPV 230851Z AUTO 31006KT 10SM SCT024 M07/M10 A3005 RMK AO2 SLP196 60000
                 T10721100 51008 =
2017-11-23 02:51 METAR KMPV 230751Z AUTO 10SM OVC024 M06/M09 A3005 RMK AO2 SNB28E35 SLP193 P0000
                 T10561089 =
2017-11-23 01:51 METAR KMPV 230651Z AUTO 32003KT 10SM OVC018 M05/M08 A3004 RMK AO2 SLP190
                 T10501078 =
2017-11-23 00:51 METAR KMPV 230551Z AUTO 32008G15KT 10SM OVC020 M04/M08 A3003 RMK AO2 PK WND
                 34027/0503 SLP185 T10441078 10000 21044 51009 =
2017-11-22 23:51 METAR KMPV 230451Z AUTO 32015G25KT 10SM BKN023 M04/M08 A3002 RMK AO2 PK WND
                 30028/0436 SLP182 T10441078 400611044 =
2017-11-22 22:51 METAR KMPV 230351Z AUTO 32013G22KT 10SM BKN016 OVC022 M03/M06 A3002 RMK AO2
                 SLP180 T10331056 =
2017-11-22 21:51 METAR KMPV 230251Z AUTO 31015G22KT 10SM BKN019 OVC026 M02/M05 A3000 RMK AO2 PK
                 WND 31027/0228 SLP175 T10221050 51007 =
2017-11-22 21:30 METAR KMPV 230230Z AUTO 30016G27KT 10SM BKN026 BKN031 OVC042 M02/M05 A3001 RMK
                 AO2 PK WND 31027/0228 T10221050 =
2017-11-22 20:51 METAR KMPV 230151Z AUTO 30016G26KT 10SM FEW023 OVC043 M02/M04 A3000 RMK AO2 PK
                 WND 30026/0150 SLP173 T10171044 =
2017-11-22 20:34 METAR KMPV 230134Z AUTO 31016G24KT 10SM FEW018 SCT024 OVC043 M02/M04 A3000 RMK
                 AO2 T10171044 =
2017-11-22 19:51 METAR KMPV 230051Z AUTO 32010KT 10SM BKN016 OVC023 M01/M02 A3000 RMK AO2 SLP174
                 T10111022 =
2017-11-22 18:51 METAR KMPV 222351Z AUTO 31012KT 10SM SCT023 BKN029 OVC045 00/M02 A2998 RMK AO2
                 SLP168 60001 T00001022 10011 20000 53012 =
2017-11-22 18:38 METAR KMPV 222338Z AUTO 32009KT 10SM SCT021 BKN027 OVC033 00/M02 A2998 RMK AO2
                 T00001017 =
2017-11-22 18:24 METAR KMPV 222324Z AUTO 31010KT 10SM SCT024 BKN034 OVC042 00/M02 A2998 RMK AO2
                 T00001017 =
2017-11-22 17:51 METAR KMPV 222251Z AUTO 31007KT 10SM BKN017 BKN025 OVC031 01/M01 A2997 RMK AO2
                 SLP160 T00061006 =
2017-11-22 16:51 METAR KMPV 222151Z AUTO 33006KT 10SM OVC023 01/M01 A2996 RMK AO2 SLP159
                 T00061006 =
2017-11-22 15:51 METAR KMPV 222051Z AUTO 31005KT 10SM OVC029 01/00 A2995 RMK AO2 SLP154 60001
                 T00060000 53007 =
2017-11-22 15:21 METAR KMPV 222021Z AUTO 29004KT 10SM BKN029 OVC045 01/00 A2995 RMK AO2 T00060000
                 =
2017-11-22 14:51 METAR KMPV 221951Z AUTO 30007KT 10SM FEW008 SCT012 OVC045 01/01 A2994 RMK AO2
                 SNE21 SLP152 P0000 T00060006 =
2017-11-22 14:44 METAR KMPV 221944Z AUTO 32006KT 10SM SCT010 OVC045 01/01 A2994 RMK AO2 SNE21
                 P0000 T00060006 =
2017-11-22 13:51 METAR KMPV 221851Z AUTO 33007KT 3SM -SN BR BKN006 OVC028 01/01 A2992 RMK AO2
                 SLP147 P0001 T00060006 =
2017-11-22 13:33 METAR KMPV 221833Z AUTO 31009KT 2 1/2SM -SN BR BKN006 OVC026 01/01 A2993 RMK AO2
                 CIG 002V009 P0001 T00060006 =
2017-11-22 13:25 METAR KMPV 221825Z AUTO 32007KT 1 1/2SM -SN BR BKN004 OVC026 01/01 A2992 RMK AO2
                 CIG 002V006 P0001 T00060006 =
2017-11-22 13:01 METAR KMPV 221801Z AUTO 31009KT 1SM -SN BR BKN004 OVC018 01/01 A2992 RMK AO2
                 P0001 T00060006 =
2017-11-22 12:51 METAR KMPV 221751Z AUTO 32009KT 1 1/2SM -SN BR OVC004 01/01 A2992 RMK AO2
                 RAE28SNB28 CIG 002V008 SLP146 P0002 60004 T00060006 10022 21006 56007 =
2017-11-22 12:42 METAR KMPV 221742Z AUTO 32009KT 1 3/4SM -SN BR OVC004 01/01 A2993 RMK AO2
                 RAE28SNB28 CIG 001V006 P0002 T00060006 =
2017-11-22 12:36 METAR KMPV 221736Z AUTO 33009KT 3SM -SN BR OVC002 01/01 A2993 RMK AO2 RAE28SNB28
                 CIG 001V007 P0002 T00060006 =
2017-11-22 12:19 METAR KMPV 221719Z AUTO 33006KT 4SM -RA BR BKN003 OVC007 02/02 A2993 RMK AO2 CIG
                 001V006 P0001 T00170017 =
2017-11-22 12:08 METAR KMPV 221708Z AUTO 32005KT 5SM -RA BR SCT003 BKN007 OVC017 02/02 A2993 RMK
                 AO2 P0001 T00220022 =
2017-11-22 11:58 METAR KMPV 221658Z AUTO 31006KT 6SM -RA BR SCT007 BKN018 OVC028 02/02 A2993 RMK
                 AO2 P0000 T00220022 =
2017-11-22 11:51 METAR KMPV 221651Z AUTO 32004KT 7SM -RA SCT018 OVC028 02/02 A2993 RMK AO2 SLP145
                 P0001 T00220022 =
2017-11-22 10:51 METAR KMPV 221551Z AUTO 00000KT 10SM -RA OVC019 02/02 A2994 RMK AO2 SLP150 P0001
                 T00220022 =
2017-11-22 09:51 METAR KMPV 221451Z AUTO 19003KT 10SM -RA BKN027 OVC034 02/00 A2995 RMK AO2
                 RAB1354 SLP153 P0000 60000 T00170000 51013 =
2017-11-22 08:51 METAR KMPV 221351Z AUTO 00000KT 10SM BKN050 OVC060 01/M01 A2994 RMK AO2 SLP149
                 T00111011 =
2017-11-22 07:51 METAR KMPV 221251Z AUTO 00000KT 10SM BKN080 BKN100 01/M02 A2992 RMK AO2 SLP144
                 T00111017 =
2017-11-22 06:51 METAR KMPV 221151Z AUTO 36003KT 10SM OVC110 00/M02 A2991 RMK AO2 SLP140
                 T00001022 10056 21006 58007 =
2017-11-22 05:51 METAR KMPV 221051Z AUTO 20007KT 10SM FEW095 04/M02 A2993 RMK AO2 SLP145
                 T00441022 =
2017-11-22 04:51 METAR KMPV 220951Z AUTO 00000KT 10SM CLR 01/M03 A2993 RMK AO2 SLP148 T00111028 =

Support USWX by starting your Amazon purchase here.